createdAt,value
2019-04-30T00:01:02.631Z,10.53
2019-04-30T00:03:50.484Z,10.61
2019-04-30T00:06:21.428Z,10.57
2019-04-30T00:08:49.102Z,10.63
2019-04-30T00:11:19.504Z,10.69
2019-04-30T00:13:50.165Z,10.61
2019-04-30T00:16:16.397Z,10.65
2019-04-30T00:18:57.139Z,10.61
2019-04-30T00:21:15.114Z,10.59
2019-04-30T00:23:43.220Z,10.57
2019-04-30T00:26:10.941Z,10.56
2019-04-30T00:28:39.467Z,10.53
2019-04-30T00:31:08.391Z,10.55
2019-04-30T00:33:36.054Z,10.52
2019-04-30T00:36:05.491Z,10.47
2019-04-30T00:38:37.831Z,10.47
2019-04-30T00:41:06.748Z,10.46
2019-04-30T00:43:37.641Z,10.52
2019-04-30T00:46:05.245Z,10.49
2019-04-30T00:48:33.059Z,10.48
2019-04-30T00:51:00.814Z,10.58
2019-04-30T00:53:28.577Z,10.57
2019-04-30T00:55:57.365Z,10.62
2019-04-30T00:58:30.310Z,10.64
2019-04-30T01:01:29.441Z,10.65
2019-04-30T01:04:05.052Z,10.64
2019-04-30T01:06:34.982Z,10.60
2019-04-30T01:09:07.767Z,10.66
2019-04-30T01:11:35.534Z,10.59
2019-04-30T01:14:03.482Z,10.53
2019-04-30T01:16:33.106Z,10.52
2019-04-30T01:19:01.196Z,10.57
2019-04-30T01:21:30.323Z,10.55
2019-04-30T01:23:59.136Z,10.58
2019-04-30T01:26:30.741Z,10.60
2019-04-30T01:29:00.537Z,10.61
2019-04-30T01:31:26.060Z,10.63
2019-04-30T01:33:53.823Z,10.65
2019-04-30T01:36:21.536Z,10.58
2019-04-30T01:38:52.339Z,10.57
2019-04-30T01:41:20.232Z,10.63
2019-04-30T01:43:48.730Z,10.62
2019-04-30T01:46:16.714Z,10.57
2019-04-30T01:48:50.591Z,10.60
2019-04-30T01:51:20.228Z,10.55
2019-04-30T01:53:44.783Z,10.59
2019-04-30T01:56:44.934Z,10.49
2019-04-30T01:59:18.971Z,10.48
2019-04-30T02:01:48.725Z,10.55
2019-04-30T02:04:16.462Z,10.55
2019-04-30T02:06:44.132Z,10.61
2019-04-30T02:09:11.725Z,10.56
2019-04-30T02:11:39.424Z,10.61
2019-04-30T02:14:08.903Z,10.39
2019-04-30T02:16:36.616Z,10.51
2019-04-30T02:19:04.286Z,10.47
2019-04-30T02:21:33.480Z,10.44
2019-04-30T02:24:01.139Z,10.54
2019-04-30T02:26:29.083Z,10.47
2019-04-30T02:28:56.678Z,10.49
2019-04-30T02:31:24.496Z,10.52
2019-04-30T02:33:56.110Z,10.52
2019-04-30T02:36:43.141Z,10.53
2019-04-30T02:39:11.269Z,10.55
2019-04-30T02:41:41.231Z,10.49
2019-04-30T02:44:09.867Z,10.39
2019-04-30T02:46:40.656Z,10.41
2019-04-30T02:49:10.655Z,10.40
2019-04-30T02:51:40.062Z,10.37
2019-04-30T02:54:35.189Z,10.34
2019-04-30T02:57:12.394Z,10.30
2019-04-30T03:00:00.035Z,10.25
2019-04-30T03:02:29.209Z,10.17
2019-04-30T03:05:00.009Z,10.13
2019-04-30T03:07:29.364Z,10.04
2019-04-30T03:09:56.405Z,9.98
2019-04-30T03:12:24.303Z,9.96
2019-04-30T03:14:51.817Z,9.85
2019-04-30T03:17:29.411Z,9.84
2019-04-30T03:20:03.426Z,9.78
2019-04-30T03:22:31.363Z,9.73
2019-04-30T03:24:59.778Z,9.70
2019-04-30T03:27:30.000Z,9.71
2019-04-30T03:29:59.955Z,9.68
2019-04-30T03:32:35.685Z,9.61
2019-04-30T03:34:56.036Z,9.57
2019-04-30T03:37:23.625Z,9.56
2019-04-30T03:39:51.188Z,9.57
2019-04-30T03:42:19.876Z,9.55
2019-04-30T03:44:49.582Z,9.59
2019-04-30T03:47:17.145Z,9.56
2019-04-30T03:49:44.660Z,9.59
2019-04-30T03:52:13.335Z,9.63
2019-04-30T03:54:41.385Z,9.59
2019-04-30T03:57:10.673Z,9.69
2019-04-30T03:59:39.710Z,9.77
2019-04-30T04:02:30.237Z,9.76
2019-04-30T04:05:10.251Z,9.77
2019-04-30T04:08:00.237Z,9.76
2019-04-30T04:10:44.742Z,9.77
2019-04-30T04:13:12.266Z,9.79
2019-04-30T04:15:40.227Z,9.84
2019-04-30T04:18:10.528Z,9.85
2019-04-30T04:20:39.522Z,9.95
2019-04-30T04:23:09.646Z,9.99
2019-04-30T04:25:39.741Z,10.02
2019-04-30T04:28:06.970Z,10.12
2019-04-30T04:30:34.566Z,10.25
2019-04-30T04:33:02.287Z,10.32
2019-04-30T04:35:30.260Z,10.37
2019-04-30T04:38:00.220Z,10.42
2019-04-30T04:40:30.001Z,10.47
2019-04-30T04:42:57.028Z,10.55
2019-04-30T04:45:24.670Z,10.63
2019-04-30T04:47:52.276Z,10.58
2019-04-30T04:50:20.380Z,10.67
2019-04-30T04:52:49.716Z,10.68
2019-04-30T04:55:21.741Z,10.86
2019-04-30T04:57:46.986Z,10.97
2019-04-30T05:00:14.630Z,11.06
2019-04-30T05:02:53.178Z,11.11
2019-04-30T05:05:20.728Z,11.13
2019-04-30T05:07:48.713Z,11.22
2019-04-30T05:10:16.360Z,11.21
2019-04-30T05:12:43.960Z,11.36
2019-04-30T05:15:11.594Z,11.42
2019-04-30T05:17:39.801Z,11.49
2019-04-30T05:20:09.799Z,11.58
2019-04-30T05:22:38.888Z,11.70
2019-04-30T05:25:08.860Z,11.77
2019-04-30T05:27:36.542Z,11.88
2019-04-30T05:30:04.939Z,12.02
2019-04-30T05:32:32.565Z,12.10
2019-04-30T05:35:00.253Z,12.17
2019-04-30T05:37:28.426Z,12.18
2019-04-30T05:39:58.468Z,12.38
2019-04-30T05:42:26.209Z,12.33
2019-04-30T05:44:53.788Z,12.32
2019-04-30T05:47:21.525Z,12.49
2019-04-30T05:49:49.165Z,12.42
2019-04-30T05:52:16.791Z,12.21
2019-04-30T05:54:44.351Z,12.43
2019-04-30T05:57:12.013Z,12.57
2019-04-30T05:59:39.756Z,12.60
2019-04-30T06:02:08.903Z,12.61
2019-04-30T06:04:38.658Z,12.69
2019-04-30T06:07:06.368Z,12.51
2019-04-30T06:09:48.519Z,12.73
2019-04-30T06:12:34.607Z,12.81
2019-04-30T06:15:24.818Z,12.89
2019-04-30T06:18:00.722Z,13.03
2019-04-30T06:20:22.202Z,13.25
2019-04-30T06:22:52.152Z,13.11
2019-04-30T06:25:28.365Z,13.25
2019-04-30T06:27:48.962Z,13.26
2019-04-30T06:30:17.134Z,13.50
2019-04-30T06:32:44.907Z,13.88
2019-04-30T06:35:12.627Z,13.94
2019-04-30T06:37:40.236Z,13.85
2019-04-30T06:40:09.397Z,14.20
2019-04-30T06:42:39.309Z,14.27
2019-04-30T06:45:09.232Z,14.35
2019-04-30T06:47:38.919Z,14.27
2019-04-30T06:50:07.061Z,14.29
2019-04-30T06:52:34.774Z,14.28
2019-04-30T06:55:02.505Z,14.16
2019-04-30T06:57:30.117Z,14.16
2019-04-30T06:59:59.617Z,13.99
2019-04-30T07:02:30.660Z,14.21
2019-04-30T07:04:58.715Z,13.98
2019-04-30T07:07:36.993Z,14.06
2019-04-30T07:10:10.107Z,14.06
2019-04-30T07:12:59.012Z,14.09
2019-04-30T07:15:26.770Z,13.98
2019-04-30T07:17:54.311Z,13.98
2019-04-30T07:20:21.908Z,14.13
2019-04-30T07:22:59.113Z,14.22
2019-04-30T07:25:19.591Z,14.19
2019-04-30T07:27:47.813Z,13.93
2019-04-30T07:30:16.821Z,13.88
2019-04-30T07:32:44.508Z,13.97
2019-04-30T07:35:12.310Z,14.22
2019-04-30T07:37:40.004Z,14.08
2019-04-30T07:40:09.272Z,13.94
2019-04-30T07:42:44.443Z,14.03
2019-04-30T07:45:06.645Z,13.93
2019-04-30T07:47:34.250Z,13.84
2019-04-30T07:50:02.041Z,13.84
2019-04-30T07:52:32.891Z,13.58
2019-04-30T07:55:00.723Z,13.73
2019-04-30T07:57:29.167Z,13.60
2019-04-30T08:00:00.524Z,13.99
2019-04-30T08:02:29.851Z,14.11
2019-04-30T08:05:04.917Z,14.23
2019-04-30T08:07:32.607Z,14.26
2019-04-30T08:10:00.330Z,13.98
2019-04-30T08:12:34.062Z,14.15
2019-04-30T08:14:59.314Z,13.89
2019-04-30T08:17:28.819Z,13.79
2019-04-30T08:19:56.384Z,13.83
2019-04-30T08:22:24.585Z,13.65
2019-04-30T08:24:52.183Z,13.69
2019-04-30T08:27:19.929Z,13.73
2019-04-30T08:29:49.430Z,13.96
2019-04-30T08:32:19.080Z,13.75
2019-04-30T08:34:46.823Z,13.82
2019-04-30T08:37:17.583Z,13.64
2019-04-30T08:39:43.938Z,13.51
2019-04-30T08:42:11.493Z,14.01
2019-04-30T08:44:39.618Z,13.96
2019-04-30T08:47:08.676Z,14.11
2019-04-30T08:49:36.728Z,14.15
2019-04-30T08:52:04.921Z,14.35
2019-04-30T08:54:34.648Z,14.48
2019-04-30T08:57:02.122Z,14.50
2019-04-30T08:59:29.672Z,14.79
2019-04-30T09:02:00.035Z,14.53
2019-04-30T09:04:29.191Z,14.32
2019-04-30T09:06:57.007Z,14.18
2019-04-30T09:09:24.705Z,14.12
2019-04-30T09:11:55.656Z,14.18
2019-04-30T09:14:21.761Z,13.79
2019-04-30T09:16:51.269Z,14.12
2019-04-30T09:19:20.978Z,13.82
2019-04-30T09:21:48.926Z,13.92
2019-04-30T09:24:16.562Z,14.03
2019-04-30T09:26:44.261Z,13.98
2019-04-30T09:29:11.799Z,14.13
2019-04-30T09:31:41.037Z,14.56
2019-04-30T09:34:16.999Z,14.03
2019-04-30T09:36:39.139Z,13.95
2019-04-30T09:39:08.932Z,14.03
2019-04-30T09:41:41.017Z,13.74
2019-04-30T09:44:07.417Z,13.77
2019-04-30T09:46:35.049Z,13.87
2019-04-30T09:49:02.622Z,13.87
2019-04-30T09:51:31.863Z,13.86
2019-04-30T09:54:03.103Z,13.47
2019-04-30T09:56:29.511Z,13.64
2019-04-30T09:58:59.119Z,13.50
2019-04-30T10:01:26.832Z,13.40
2019-04-30T10:03:54.771Z,13.24
2019-04-30T10:06:22.764Z,13.30
2019-04-30T10:08:51.304Z,13.32
2019-04-30T10:11:34.246Z,13.27
2019-04-30T10:14:01.804Z,13.41
2019-04-30T10:16:52.436Z,13.42
2019-04-30T10:19:21.002Z,13.46
2019-04-30T10:21:49.017Z,13.34
2019-04-30T10:24:16.846Z,13.47
2019-04-30T10:26:44.512Z,13.48
2019-04-30T10:29:12.413Z,13.27
2019-04-30T10:31:40.019Z,13.11
2019-04-30T10:34:09.623Z,13.14
2019-04-30T10:36:41.175Z,13.11
2019-04-30T10:39:07.284Z,13.21
2019-04-30T10:41:34.968Z,13.00
2019-04-30T10:44:03.168Z,13.25
2019-04-30T10:46:30.671Z,13.41
2019-04-30T10:48:58.319Z,13.19
2019-04-30T10:51:25.984Z,13.38
2019-04-30T10:53:53.598Z,13.62
2019-04-30T10:56:21.197Z,13.66
2019-04-30T10:58:48.836Z,13.46
2019-04-30T11:01:16.392Z,13.62
2019-04-30T11:03:45.069Z,13.48
2019-04-30T11:06:12.631Z,13.51
2019-04-30T11:08:40.743Z,13.63
2019-04-30T11:11:08.400Z,13.63
2019-04-30T11:13:35.963Z,13.50
2019-04-30T11:16:12.716Z,13.24
2019-04-30T11:18:33.303Z,13.08
2019-04-30T11:21:01.280Z,13.11
2019-04-30T11:23:29.712Z,13.33
2019-04-30T11:25:59.632Z,13.23
2019-04-30T11:28:28.923Z,13.23
2019-04-30T11:31:25.673Z,12.79
2019-04-30T11:33:54.663Z,12.90
2019-04-30T11:36:22.318Z,12.90
2019-04-30T11:38:49.874Z,12.55
2019-04-30T11:41:29.807Z,12.34
2019-04-30T11:43:47.052Z,12.44
2019-04-30T11:46:59.597Z,12.34
2019-04-30T11:49:27.399Z,12.51
2019-04-30T11:51:55.005Z,12.34
2019-04-30T11:54:22.775Z,12.35
2019-04-30T11:56:50.537Z,12.22
2019-04-30T11:59:19.545Z,12.37
2019-04-30T12:01:48.738Z,12.32
2019-04-30T12:04:16.472Z,12.26
2019-04-30T12:06:44.079Z,12.34
2019-04-30T12:09:31.664Z,12.10
2019-04-30T12:11:59.254Z,12.31
2019-04-30T12:14:26.952Z,12.34
2019-04-30T12:16:54.533Z,12.39
2019-04-30T12:19:22.171Z,12.31
2019-04-30T12:21:49.768Z,12.28
2019-04-30T12:24:17.420Z,12.14
2019-04-30T12:26:45.028Z,12.11
2019-04-30T12:29:12.640Z,12.05
2019-04-30T12:31:40.276Z,12.10
2019-04-30T12:34:08.110Z,12.10
2019-04-30T12:36:35.747Z,12.07
2019-04-30T12:39:04.889Z,12.13
2019-04-30T12:41:32.770Z,12.09
2019-04-30T12:44:00.393Z,11.96
2019-04-30T12:46:28.948Z,12.12
2019-04-30T12:49:10.189Z,12.12
2019-04-30T12:52:08.728Z,11.96
2019-04-30T12:55:14.900Z,11.97
2019-04-30T12:57:39.265Z,12.01
2019-04-30T13:00:09.616Z,11.88
2019-04-30T13:02:37.779Z,11.84
2019-04-30T13:05:06.123Z,11.92
2019-04-30T13:07:34.468Z,11.93
2019-04-30T13:10:03.560Z,11.79
2019-04-30T13:12:32.395Z,11.76
2019-04-30T13:15:00.561Z,11.62
2019-04-30T13:17:28.301Z,11.71
2019-04-30T13:19:56.057Z,11.65
2019-04-30T13:22:23.749Z,11.67
2019-04-30T13:24:51.542Z,11.72
2019-04-30T13:27:19.609Z,11.68
2019-04-30T13:30:14.454Z,11.64
2019-04-30T13:32:49.423Z,11.62
2019-04-30T13:35:19.002Z,11.50
2019-04-30T13:37:57.383Z,11.49
2019-04-30T13:40:44.601Z,11.40
2019-04-30T13:43:13.383Z,11.35
2019-04-30T13:45:41.075Z,11.40
2019-04-30T13:48:09.035Z,11.43
2019-04-30T13:50:36.769Z,11.37
2019-04-30T13:53:04.468Z,11.43
2019-04-30T13:55:42.930Z,11.46
2019-04-30T13:58:01.739Z,11.40
2019-04-30T14:00:30.062Z,11.36
2019-04-30T14:03:09.210Z,11.42
2019-04-30T14:05:37.137Z,11.36
2019-04-30T14:08:29.002Z,11.28
2019-04-30T14:10:56.800Z,11.32
2019-04-30T14:13:25.950Z,11.43
2019-04-30T14:15:53.739Z,11.48
2019-04-30T14:18:28.333Z,11.56
2019-04-30T14:20:50.956Z,11.58
2019-04-30T14:23:18.690Z,11.65
2019-04-30T14:25:56.285Z,11.84
2019-04-30T14:28:15.887Z,11.95
2019-04-30T14:30:43.550Z,11.97
2019-04-30T14:33:22.979Z,11.99
2019-04-30T14:35:40.681Z,12.03
2019-04-30T14:38:09.048Z,11.94
2019-04-30T14:40:37.222Z,11.98
2019-04-30T14:43:13.503Z,12.15
2019-04-30T14:46:01.863Z,12.23
2019-04-30T14:48:36.057Z,12.18
2019-04-30T14:51:04.243Z,12.17
2019-04-30T14:54:03.231Z,12.11
2019-04-30T14:56:40.243Z,12.19
2019-04-30T14:59:25.774Z,12.19
2019-04-30T15:02:16.118Z,12.29
2019-04-30T15:04:43.774Z,12.23
2019-04-30T15:07:12.455Z,12.34
2019-04-30T15:09:40.031Z,12.22
2019-04-30T15:12:09.594Z,12.20
2019-04-30T15:14:38.785Z,12.11
2019-04-30T15:17:06.857Z,12.10
2019-04-30T15:19:34.536Z,12.05
2019-04-30T15:22:03.939Z,12.04
2019-04-30T15:24:34.362Z,12.19
2019-04-30T15:27:02.053Z,12.19
2019-04-30T15:29:29.873Z,12.12
2019-04-30T15:31:59.270Z,12.29
2019-04-30T15:34:29.222Z,12.33
2019-04-30T15:36:56.820Z,12.42
2019-04-30T15:39:31.002Z,12.45
2019-04-30T15:41:59.135Z,12.38
2019-04-30T15:44:27.023Z,12.54
2019-04-30T15:46:54.905Z,12.59
2019-04-30T15:49:24.017Z,12.64
2019-04-30T15:51:53.721Z,12.57
2019-04-30T15:54:21.358Z,12.59
2019-04-30T15:56:49.188Z,12.58
2019-04-30T15:59:33.737Z,12.62
2019-04-30T16:02:11.348Z,12.65
2019-04-30T16:05:01.794Z,12.71
2019-04-30T16:07:29.641Z,12.55
2019-04-30T16:10:05.750Z,12.50
2019-04-30T16:12:44.760Z,12.44
2019-04-30T16:15:12.417Z,12.41
2019-04-30T16:17:43.212Z,12.34
2019-04-30T16:20:11.564Z,12.29
2019-04-30T16:22:39.357Z,12.19
2019-04-30T16:25:08.651Z,12.09
2019-04-30T16:27:36.745Z,12.11
2019-04-30T16:30:04.612Z,12.05
2019-04-30T16:32:32.381Z,12.04
2019-04-30T16:35:00.140Z,11.96
2019-04-30T16:37:28.705Z,11.99
2019-04-30T16:39:56.643Z,11.92
2019-04-30T16:42:24.857Z,11.88
2019-04-30T16:44:52.639Z,11.85
2019-04-30T16:47:20.300Z,11.77
2019-04-30T16:49:49.297Z,11.72
2019-04-30T16:52:19.003Z,11.75
2019-04-30T16:54:46.711Z,11.75
2019-04-30T16:57:14.317Z,11.75
2019-04-30T16:59:41.992Z,11.65
2019-04-30T17:02:10.755Z,11.64
2019-04-30T17:04:53.614Z,11.68
2019-04-30T17:07:39.090Z,11.69
2019-04-30T17:10:12.957Z,11.64
2019-04-30T17:12:51.462Z,11.61
2019-04-30T17:15:22.572Z,11.54
2019-04-30T17:17:50.299Z,11.49
2019-04-30T17:20:20.775Z,11.38
2019-04-30T17:22:49.628Z,11.30
2019-04-30T17:25:17.491Z,11.26
2019-04-30T17:27:45.159Z,11.24
2019-04-30T17:30:12.989Z,11.21
2019-04-30T17:32:40.640Z,11.16
2019-04-30T17:35:09.745Z,11.08
2019-04-30T17:37:37.395Z,11.04
2019-04-30T17:40:05.929Z,10.96
2019-04-30T17:42:34.174Z,10.93
2019-04-30T17:45:01.968Z,10.87
2019-04-30T17:47:30.605Z,10.84
2019-04-30T17:49:58.895Z,10.80
2019-04-30T17:52:29.806Z,10.74
2019-04-30T17:54:59.508Z,10.68
2019-04-30T17:57:33.864Z,10.55
2019-04-30T17:59:59.100Z,10.67
2019-04-30T18:02:29.343Z,10.67
2019-04-30T18:04:57.401Z,10.67
2019-04-30T18:07:29.553Z,10.67
2019-04-30T18:09:58.688Z,10.63
2019-04-30T18:12:29.217Z,10.65
2019-04-30T18:14:57.078Z,10.60
2019-04-30T18:17:25.838Z,10.60
2019-04-30T18:20:06.851Z,10.56
2019-04-30T18:23:09.357Z,10.53
2019-04-30T18:25:40.993Z,10.52
2019-04-30T18:28:09.649Z,10.44
2019-04-30T18:30:39.094Z,10.36
2019-04-30T18:33:06.897Z,10.37
2019-04-30T18:35:34.583Z,10.33
2019-04-30T18:38:03.385Z,10.43
2019-04-30T18:40:31.051Z,10.42
2019-04-30T18:42:59.419Z,10.44
2019-04-30T18:45:28.874Z,10.43
2019-04-30T18:47:56.504Z,10.35
2019-04-30T18:50:25.248Z,10.32
2019-04-30T18:52:54.680Z,10.29
2019-04-30T18:55:22.281Z,10.08
2019-04-30T18:57:56.518Z,10.21
2019-04-30T19:00:29.401Z,10.25
2019-04-30T19:02:58.652Z,10.29
2019-04-30T19:05:29.422Z,10.33
2019-04-30T19:08:02.453Z,10.25
2019-04-30T19:10:49.087Z,10.23
2019-04-30T19:13:36.260Z,10.19
2019-04-30T19:16:42.177Z,10.23
2019-04-30T19:19:15.028Z,10.21
2019-04-30T19:21:42.781Z,10.19
2019-04-30T19:24:10.403Z,10.18
2019-04-30T19:26:38.865Z,10.14
2019-04-30T19:29:07.703Z,10.08
2019-04-30T19:31:35.597Z,10.08
2019-04-30T19:34:04.161Z,10.08
2019-04-30T19:36:37.368Z,10.02
2019-04-30T19:39:01.650Z,10.04
2019-04-30T19:41:31.491Z,10.07
2019-04-30T19:43:59.326Z,9.99
2019-04-30T19:46:29.319Z,9.97
2019-04-30T19:48:58.580Z,9.96
2019-04-30T19:51:26.864Z,9.84
2019-04-30T19:53:54.497Z,9.78
2019-04-30T19:56:22.236Z,10.03
2019-04-30T19:59:01.683Z,9.95
2019-04-30T20:01:19.529Z,9.85
2019-04-30T20:03:47.229Z,9.80
2019-04-30T20:06:15.114Z,9.72
2019-04-30T20:08:42.750Z,9.65
2019-04-30T20:11:10.492Z,9.60
2019-04-30T20:13:40.311Z,9.48
2019-04-30T20:16:09.544Z,9.58
2019-04-30T20:18:39.009Z,9.63
2019-04-30T20:21:10.576Z,9.73
2019-04-30T20:23:38.207Z,9.98
2019-04-30T20:26:05.952Z,10.06
2019-04-30T20:28:41.399Z,10.18
2019-04-30T20:31:03.208Z,10.19
2019-04-30T20:33:30.813Z,10.23
2019-04-30T20:35:59.789Z,10.29
2019-04-30T20:38:45.687Z,10.26
2019-04-30T20:41:13.447Z,10.31
2019-04-30T20:43:41.221Z,10.29
2019-04-30T20:46:08.962Z,10.28
2019-04-30T20:48:36.796Z,10.29
2019-04-30T20:51:04.723Z,10.35
2019-04-30T20:53:32.558Z,10.29
2019-04-30T20:56:01.328Z,10.27
2019-04-30T20:58:29.227Z,10.28
2019-04-30T21:01:03.978Z,10.38
2019-04-30T21:03:26.861Z,10.36
2019-04-30T21:05:54.586Z,10.36
2019-04-30T21:08:22.245Z,10.31
2019-04-30T21:10:49.853Z,10.28
2019-04-30T21:13:18.971Z,10.26
2019-04-30T21:15:47.153Z,10.26
2019-04-30T21:18:14.760Z,10.32
2019-04-30T21:20:42.477Z,10.32
2019-04-30T21:23:10.068Z,10.33
2019-04-30T21:25:38.690Z,10.34
2019-04-30T21:28:06.760Z,10.38
2019-04-30T21:30:34.390Z,10.32
2019-04-30T21:33:19.325Z,10.26
2019-04-30T21:35:54.364Z,10.25
2019-04-30T21:38:22.040Z,10.22
2019-04-30T21:40:49.748Z,10.31
2019-04-30T21:43:17.376Z,10.39
2019-04-30T21:45:45.714Z,10.36
2019-04-30T21:48:13.371Z,10.23
2019-04-30T21:50:41.101Z,10.24
2019-04-30T21:53:09.899Z,10.28
2019-04-30T21:55:39.850Z,10.35
2019-04-30T21:58:09.371Z,10.39
2019-04-30T22:00:56.324Z,10.45
2019-04-30T22:03:26.064Z,10.42
2019-04-30T22:05:53.808Z,10.41
2019-04-30T22:08:21.440Z,10.31
2019-04-30T22:10:49.147Z,10.26
2019-04-30T22:13:18.528Z,10.11
2019-04-30T22:15:46.832Z,10.18
2019-04-30T22:18:14.489Z,10.17
2019-04-30T22:20:42.068Z,10.08
2019-04-30T22:23:09.788Z,10.09
2019-04-30T22:25:39.174Z,10.04
2019-04-30T22:28:08.071Z,10.00
2019-04-30T22:30:35.659Z,10.05
2019-04-30T22:33:03.503Z,9.97
2019-04-30T22:35:53.923Z,9.93
2019-04-30T22:38:25.519Z,9.82
2019-04-30T22:40:53.473Z,9.76
2019-04-30T22:43:21.119Z,9.87
2019-04-30T22:45:54.365Z,9.74
2019-04-30T22:48:22.142Z,9.60
2019-04-30T22:50:49.941Z,9.79
2019-04-30T22:53:17.639Z,9.69
2019-04-30T22:55:45.987Z,9.74
2019-04-30T22:58:13.643Z,9.83
2019-04-30T23:00:43.815Z,9.81
2019-04-30T23:03:14.475Z,9.85
2019-04-30T23:05:42.307Z,9.95
2019-04-30T23:08:09.950Z,9.91
2019-04-30T23:10:37.555Z,9.83
2019-04-30T23:13:05.284Z,9.80
2019-04-30T23:15:32.946Z,9.76
2019-04-30T23:18:01.601Z,9.72
2019-04-30T23:20:29.302Z,9.63
2019-04-30T23:22:56.973Z,9.63
2019-04-30T23:25:24.640Z,9.51
2019-04-30T23:27:53.717Z,9.39
2019-04-30T23:30:21.558Z,9.32
2019-04-30T23:32:49.840Z,9.28
2019-04-30T23:35:17.571Z,9.32
2019-04-30T23:37:45.113Z,9.26
2019-04-30T23:40:27.968Z,9.23
2019-04-30T23:42:56.055Z,9.17
2019-04-30T23:45:23.856Z,9.05
2019-04-30T23:47:52.588Z,9.06
2019-04-30T23:50:20.234Z,8.98
2019-04-30T23:52:47.880Z,8.99
2019-04-30T23:55:16.436Z,8.91
2019-04-30T23:57:44.302Z,8.83
